sensor_id;sensor_type;location;lat;lon;timestamp;P1;durP1;ratioP1;P2;durP2;ratioP2
23113;SDS011;11726;50.122;8.832;2024-03-08T00:00:34;19.98;;;7.25;;
23113;SDS011;11726;50.122;8.832;2024-03-08T00:03:01;20.90;;;7.72;;
23113;SDS011;11726;50.122;8.832;2024-03-08T00:05:29;19.05;;;7.40;;
23113;SDS011;11726;50.122;8.832;2024-03-08T00:07:56;17.83;;;7.07;;
23113;SDS011;11726;50.122;8.832;2024-03-08T00:10:23;20.58;;;7.05;;
23113;SDS011;11726;50.122;8.832;2024-03-08T00:12:53;16.35;;;7.47;;
23113;SDS011;11726;50.122;8.832;2024-03-08T00:15:20;19.17;;;7.90;;
23113;SDS011;11726;50.122;8.832;2024-03-08T00:17:49;17.83;;;7.78;;
23113;SDS011;11726;50.122;8.832;2024-03-08T00:20:17;23.48;;;8.02;;
23113;SDS011;11726;50.122;8.832;2024-03-08T00:22:46;19.35;;;6.90;;
23113;SDS011;11726;50.122;8.832;2024-03-08T00:25:13;18.77;;;8.38;;
23113;SDS011;11726;50.122;8.832;2024-03-08T00:27:41;14.02;;;6.63;;
23113;SDS011;11726;50.122;8.832;2024-03-08T00:30:08;14.45;;;6.95;;
23113;SDS011;11726;50.122;8.832;2024-03-08T00:32:35;20.15;;;8.25;;
23113;SDS011;11726;50.122;8.832;2024-03-08T00:35:03;20.77;;;8.07;;
23113;SDS011;11726;50.122;8.832;2024-03-08T00:37:33;17.52;;;7.22;;
23113;SDS011;11726;50.122;8.832;2024-03-08T00:40:03;18.95;;;7.55;;
23113;SDS011;11726;50.122;8.832;2024-03-08T00:42:30;15.38;;;6.82;;
23113;SDS011;11726;50.122;8.832;2024-03-08T00:44:57;19.90;;;7.38;;
23113;SDS011;11726;50.122;8.832;2024-03-08T00:47:25;17.50;;;7.25;;
23113;SDS011;11726;50.122;8.832;2024-03-08T00:49:53;16.40;;;7.07;;
23113;SDS011;11726;50.122;8.832;2024-03-08T00:52:22;18.55;;;7.43;;
23113;SDS011;11726;50.122;8.832;2024-03-08T00:54:50;17.85;;;7.20;;
23113;SDS011;11726;50.122;8.832;2024-03-08T00:57:17;17.98;;;7.53;;
23113;SDS011;11726;50.122;8.832;2024-03-08T00:59:43;14.77;;;6.75;;
23113;SDS011;11726;50.122;8.832;2024-03-08T01:02:10;18.05;;;6.93;;
23113;SDS011;11726;50.122;8.832;2024-03-08T01:04:37;21.52;;;8.35;;
23113;SDS011;11726;50.122;8.832;2024-03-08T01:07:03;16.67;;;7.03;;
23113;SDS011;11726;50.122;8.832;2024-03-08T01:09:30;20.20;;;6.93;;
23113;SDS011;11726;50.122;8.832;2024-03-08T01:11:57;20.35;;;7.63;;
23113;SDS011;11726;50.122;8.832;2024-03-08T01:14:24;16.80;;;6.55;;
23113;SDS011;11726;50.122;8.832;2024-03-08T01:16:57;17.67;;;7.60;;
23113;SDS011;11726;50.122;8.832;2024-03-08T01:19:25;16.65;;;7.00;;
23113;SDS011;11726;50.122;8.832;2024-03-08T01:21:51;15.75;;;7.70;;
23113;SDS011;11726;50.122;8.832;2024-03-08T01:24:18;18.17;;;7.40;;
23113;SDS011;11726;50.122;8.832;2024-03-08T01:26:45;18.73;;;6.55;;
23113;SDS011;11726;50.122;8.832;2024-03-08T01:29:13;17.05;;;6.65;;
23113;SDS011;11726;50.122;8.832;2024-03-08T01:31:39;19.58;;;7.38;;
23113;SDS011;11726;50.122;8.832;2024-03-08T01:34:06;17.50;;;7.25;;
23113;SDS011;11726;50.122;8.832;2024-03-08T01:36:33;17.45;;;7.38;;
23113;SDS011;11726;50.122;8.832;2024-03-08T01:38:59;18.80;;;7.80;;
23113;SDS011;11726;50.122;8.832;2024-03-08T01:41:26;19.77;;;7.57;;
23113;SDS011;11726;50.122;8.832;2024-03-08T01:43:55;17.48;;;7.20;;
23113;SDS011;11726;50.122;8.832;2024-03-08T01:46:22;21.50;;;8.32;;
23113;SDS011;11726;50.122;8.832;2024-03-08T01:48:49;17.50;;;7.40;;
23113;SDS011;11726;50.122;8.832;2024-03-08T01:51:19;18.15;;;6.90;;
23113;SDS011;11726;50.122;8.832;2024-03-08T01:53:46;19.95;;;8.95;;
23113;SDS011;11726;50.122;8.832;2024-03-08T01:56:14;17.50;;;8.10;;
23113;SDS011;11726;50.122;8.832;2024-03-08T01:58:41;18.88;;;7.50;;
23113;SDS011;11726;50.122;8.832;2024-03-08T02:01:13;19.60;;;8.02;;
23113;SDS011;11726;50.122;8.832;2024-03-08T02:03:41;23.52;;;8.30;;
23113;SDS011;11726;50.122;8.832;2024-03-08T02:06:13;22.63;;;8.07;;
23113;SDS011;11726;50.122;8.832;2024-03-08T02:08:43;18.80;;;7.32;;
23113;SDS011;11726;50.122;8.832;2024-03-08T02:11:11;18.48;;;8.35;;
23113;SDS011;11726;50.122;8.832;2024-03-08T02:13:38;19.83;;;7.75;;
23113;SDS011;11726;50.122;8.832;2024-03-08T02:16:05;23.20;;;9.15;;
23113;SDS011;11726;50.122;8.832;2024-03-08T02:18:34;19.85;;;8.38;;
23113;SDS011;11726;50.122;8.832;2024-03-08T02:21:02;23.15;;;7.65;;
23113;SDS011;11726;50.122;8.832;2024-03-08T02:23:30;17.10;;;6.72;;
23113;SDS011;11726;50.122;8.832;2024-03-08T02:25:59;18.45;;;7.82;;
23113;SDS011;11726;50.122;8.832;2024-03-08T02:28:26;18.73;;;7.50;;
23113;SDS011;11726;50.122;8.832;2024-03-08T02:30:52;21.40;;;7.82;;
23113;SDS011;11726;50.122;8.832;2024-03-08T02:33:24;18.42;;;7.82;;
23113;SDS011;11726;50.122;8.832;2024-03-08T02:35:52;17.70;;;7.53;;
23113;SDS011;11726;50.122;8.832;2024-03-08T02:38:19;18.65;;;7.88;;
23113;SDS011;11726;50.122;8.832;2024-03-08T02:40:50;22.52;;;7.68;;
23113;SDS011;11726;50.122;8.832;2024-03-08T02:43:19;20.05;;;8.52;;
23113;SDS011;11726;50.122;8.832;2024-03-08T02:45:48;19.45;;;7.43;;
23113;SDS011;11726;50.122;8.832;2024-03-08T02:48:16;22.60;;;7.60;;
23113;SDS011;11726;50.122;8.832;2024-03-08T02:50:43;18.20;;;7.70;;
23113;SDS011;11726;50.122;8.832;2024-03-08T02:53:11;22.95;;;8.38;;
23113;SDS011;11726;50.122;8.832;2024-03-08T02:55:38;24.02;;;8.95;;
23113;SDS011;11726;50.122;8.832;2024-03-08T02:58:07;18.33;;;7.68;;
23113;SDS011;11726;50.122;8.832;2024-03-08T03:00:36;18.17;;;7.38;;
23113;SDS011;11726;50.122;8.832;2024-03-08T03:03:04;22.77;;;8.05;;
23113;SDS011;11726;50.122;8.832;2024-03-08T03:05:32;17.50;;;7.22;;
23113;SDS011;11726;50.122;8.832;2024-03-08T03:08:02;19.35;;;8.05;;
23113;SDS011;11726;50.122;8.832;2024-03-08T03:10:35;17.83;;;7.55;;
23113;SDS011;11726;50.122;8.832;2024-03-08T03:13:02;18.15;;;7.72;;
23113;SDS011;11726;50.122;8.832;2024-03-08T03:15:31;20.48;;;8.52;;
23113;SDS011;11726;50.122;8.832;2024-03-08T03:17:57;21.02;;;7.85;;
23113;SDS011;11726;50.122;8.832;2024-03-08T03:20:24;17.30;;;8.05;;
23113;SDS011;11726;50.122;8.832;2024-03-08T03:22:59;18.10;;;7.93;;
23113;SDS011;11726;50.122;8.832;2024-03-08T03:25:27;20.25;;;8.05;;
23113;SDS011;11726;50.122;8.832;2024-03-08T03:27:59;23.85;;;7.82;;
23113;SDS011;11726;50.122;8.832;2024-03-08T03:30:26;18.98;;;8.68;;
23113;SDS011;11726;50.122;8.832;2024-03-08T03:32:57;21.73;;;8.07;;
23113;SDS011;11726;50.122;8.832;2024-03-08T03:35:29;20.67;;;8.02;;
23113;SDS011;11726;50.122;8.832;2024-03-08T03:37:56;23.50;;;8.27;;
23113;SDS011;11726;50.122;8.832;2024-03-08T03:40:33;18.30;;;7.65;;
23113;SDS011;11726;50.122;8.832;2024-03-08T03:43:00;20.67;;;8.27;;
23113;SDS011;11726;50.122;8.832;2024-03-08T03:45:29;21.45;;;8.30;;
23113;SDS011;11726;50.122;8.832;2024-03-08T03:48:00;23.83;;;8.80;;
23113;SDS011;11726;50.122;8.832;2024-03-08T03:50:31;17.92;;;7.57;;
23113;SDS011;11726;50.122;8.832;2024-03-08T03:53:01;18.13;;;8.18;;
23113;SDS011;11726;50.122;8.832;2024-03-08T03:55:28;17.92;;;7.70;;
23113;SDS011;11726;50.122;8.832;2024-03-08T03:57:55;23.45;;;9.30;;
23113;SDS011;11726;50.122;8.832;2024-03-08T04:00:22;19.50;;;7.35;;
23113;SDS011;11726;50.122;8.832;2024-03-08T04:02:49;18.20;;;7.90;;
23113;SDS011;11726;50.122;8.832;2024-03-08T04:05:17;20.02;;;7.90;;
23113;SDS011;11726;50.122;8.832;2024-03-08T04:07:44;20.77;;;8.05;;
23113;SDS011;11726;50.122;8.832;2024-03-08T04:10:11;20.77;;;8.00;;
23113;SDS011;11726;50.122;8.832;2024-03-08T04:12:38;20.98;;;7.72;;
23113;SDS011;11726;50.122;8.832;2024-03-08T04:15:05;18.63;;;7.97;;
23113;SDS011;11726;50.122;8.832;2024-03-08T04:17:37;20.92;;;8.77;;
23113;SDS011;11726;50.122;8.832;2024-03-08T04:20:04;19.77;;;8.23;;
23113;SDS011;11726;50.122;8.832;2024-03-08T04:22:36;21.42;;;8.02;;
23113;SDS011;11726;50.122;8.832;2024-03-08T04:25:03;22.35;;;8.23;;
23113;SDS011;11726;50.122;8.832;2024-03-08T04:27:31;19.25;;;8.07;;
23113;SDS011;11726;50.122;8.832;2024-03-08T04:30:02;23.20;;;8.88;;
23113;SDS011;11726;50.122;8.832;2024-03-08T04:32:29;25.05;;;8.60;;
23113;SDS011;11726;50.122;8.832;2024-03-08T04:34:58;19.52;;;8.38;;
23113;SDS011;11726;50.122;8.832;2024-03-08T04:37:27;20.08;;;8.52;;
23113;SDS011;11726;50.122;8.832;2024-03-08T04:39:55;15.90;;;7.55;;
23113;SDS011;11726;50.122;8.832;2024-03-08T04:42:22;21.27;;;8.15;;
23113;SDS011;11726;50.122;8.832;2024-03-08T04:44:50;25.73;;;8.80;;
23113;SDS011;11726;50.122;8.832;2024-03-08T04:47:16;24.45;;;8.25;;
23113;SDS011;11726;50.122;8.832;2024-03-08T04:49:44;18.85;;;7.50;;
23113;SDS011;11726;50.122;8.832;2024-03-08T04:52:10;23.65;;;9.13;;
23113;SDS011;11726;50.122;8.832;2024-03-08T04:54:38;23.30;;;8.98;;
23113;SDS011;11726;50.122;8.832;2024-03-08T04:57:05;23.77;;;9.27;;
23113;SDS011;11726;50.122;8.832;2024-03-08T04:59:34;26.48;;;8.63;;
23113;SDS011;11726;50.122;8.832;2024-03-08T05:02:02;20.42;;;8.38;;
23113;SDS011;11726;50.122;8.832;2024-03-08T05:04:29;23.67;;;8.90;;
23113;SDS011;11726;50.122;8.832;2024-03-08T05:06:56;29.13;;;8.30;;
23113;SDS011;11726;50.122;8.832;2024-03-08T05:09:22;22.60;;;8.70;;
23113;SDS011;11726;50.122;8.832;2024-03-08T05:11:50;26.52;;;9.07;;
23113;SDS011;11726;50.122;8.832;2024-03-08T05:14:16;23.52;;;8.95;;
23113;SDS011;11726;50.122;8.832;2024-03-08T05:16:44;25.48;;;9.05;;
23113;SDS011;11726;50.122;8.832;2024-03-08T05:19:17;24.92;;;9.25;;
23113;SDS011;11726;50.122;8.832;2024-03-08T05:21:45;24.52;;;9.52;;
23113;SDS011;11726;50.122;8.832;2024-03-08T05:24:16;22.90;;;9.57;;
23113;SDS011;11726;50.122;8.832;2024-03-08T05:26:44;26.63;;;9.60;;
23113;SDS011;11726;50.122;8.832;2024-03-08T05:29:13;22.90;;;9.25;;
23113;SDS011;11726;50.122;8.832;2024-03-08T05:31:50;22.25;;;9.25;;
23113;SDS011;11726;50.122;8.832;2024-03-08T05:34:21;21.08;;;8.75;;
23113;SDS011;11726;50.122;8.832;2024-03-08T05:36:49;22.20;;;8.57;;
23113;SDS011;11726;50.122;8.832;2024-03-08T05:39:16;21.38;;;8.27;;
23113;SDS011;11726;50.122;8.832;2024-03-08T05:41:44;21.70;;;8.98;;
23113;SDS011;11726;50.122;8.832;2024-03-08T05:44:12;25.33;;;10.63;;
23113;SDS011;11726;50.122;8.832;2024-03-08T05:46:39;21.95;;;9.23;;
23113;SDS011;11726;50.122;8.832;2024-03-08T05:49:06;21.17;;;8.60;;
23113;SDS011;11726;50.122;8.832;2024-03-08T05:51:37;21.42;;;8.52;;
23113;SDS011;11726;50.122;8.832;2024-03-08T05:54:06;18.75;;;7.65;;
23113;SDS011;11726;50.122;8.832;2024-03-08T05:56:36;21.33;;;8.63;;
23113;SDS011;11726;50.122;8.832;2024-03-08T05:59:04;25.33;;;9.57;;
23113;SDS011;11726;50.122;8.832;2024-03-08T06:01:31;25.48;;;8.80;;
23113;SDS011;11726;50.122;8.832;2024-03-08T06:03:57;24.10;;;8.85;;
23113;SDS011;11726;50.122;8.832;2024-03-08T06:06:24;21.25;;;9.00;;
23113;SDS011;11726;50.122;8.832;2024-03-08T06:08:52;21.50;;;8.65;;
23113;SDS011;11726;50.122;8.832;2024-03-08T06:11:19;23.52;;;10.15;;
23113;SDS011;11726;50.122;8.832;2024-03-08T06:13:47;26.00;;;9.35;;
23113;SDS011;11726;50.122;8.832;2024-03-08T06:16:14;20.88;;;9.55;;
23113;SDS011;11726;50.122;8.832;2024-03-08T06:18:40;30.02;;;10.10;;
23113;SDS011;11726;50.122;8.832;2024-03-08T06:21:08;24.23;;;9.25;;
23113;SDS011;11726;50.122;8.832;2024-03-08T06:23:37;23.33;;;9.50;;
23113;SDS011;11726;50.122;8.832;2024-03-08T06:26:05;26.58;;;9.32;;
23113;SDS011;11726;50.122;8.832;2024-03-08T06:28:31;22.80;;;8.52;;
23113;SDS011;11726;50.122;8.832;2024-03-08T06:30:59;21.17;;;9.05;;
23113;SDS011;11726;50.122;8.832;2024-03-08T06:33:26;25.92;;;9.15;;
23113;SDS011;11726;50.122;8.832;2024-03-08T06:35:54;22.85;;;9.57;;
23113;SDS011;11726;50.122;8.832;2024-03-08T06:38:24;24.85;;;9.18;;
23113;SDS011;11726;50.122;8.832;2024-03-08T06:40:51;24.83;;;9.93;;
23113;SDS011;11726;50.122;8.832;2024-03-08T06:43:18;25.80;;;9.43;;
23113;SDS011;11726;50.122;8.832;2024-03-08T06:45:45;22.05;;;8.60;;
23113;SDS011;11726;50.122;8.832;2024-03-08T06:48:15;22.38;;;9.57;;
23113;SDS011;11726;50.122;8.832;2024-03-08T06:50:43;24.10;;;9.27;;
23113;SDS011;11726;50.122;8.832;2024-03-08T06:53:13;23.77;;;8.57;;
23113;SDS011;11726;50.122;8.832;2024-03-08T06:55:40;24.25;;;9.40;;
23113;SDS011;11726;50.122;8.832;2024-03-08T06:58:07;28.80;;;10.52;;
23113;SDS011;11726;50.122;8.832;2024-03-08T07:00:33;20.17;;;8.65;;
23113;SDS011;11726;50.122;8.832;2024-03-08T07:03:00;23.50;;;9.23;;
23113;SDS011;11726;50.122;8.832;2024-03-08T07:05:27;24.48;;;9.10;;
23113;SDS011;11726;50.122;8.832;2024-03-08T07:07:57;25.20;;;9.68;;
23113;SDS011;11726;50.122;8.832;2024-03-08T07:10:24;22.42;;;9.88;;
23113;SDS011;11726;50.122;8.832;2024-03-08T07:12:52;25.48;;;9.00;;
23113;SDS011;11726;50.122;8.832;2024-03-08T07:15:21;25.75;;;10.48;;
23113;SDS011;11726;50.122;8.832;2024-03-08T07:17:49;26.42;;;9.85;;
23113;SDS011;11726;50.122;8.832;2024-03-08T07:20:18;22.75;;;9.55;;
23113;SDS011;11726;50.122;8.832;2024-03-08T07:22:45;25.38;;;9.65;;
23113;SDS011;11726;50.122;8.832;2024-03-08T07:25:18;25.20;;;9.68;;
23113;SDS011;11726;50.122;8.832;2024-03-08T07:30:20;25.02;;;9.30;;
23113;SDS011;11726;50.122;8.832;2024-03-08T07:33:06;21.88;;;9.02;;
23113;SDS011;11726;50.122;8.832;2024-03-08T07:35:34;27.95;;;9.82;;
23113;SDS011;11726;50.122;8.832;2024-03-08T07:38:04;25.38;;;9.38;;
23113;SDS011;11726;50.122;8.832;2024-03-08T07:40:33;24.05;;;9.57;;
23113;SDS011;11726;50.122;8.832;2024-03-08T07:43:02;25.27;;;9.73;;
23113;SDS011;11726;50.122;8.832;2024-03-08T07:45:28;25.10;;;9.25;;
23113;SDS011;11726;50.122;8.832;2024-03-08T07:47:56;23.67;;;10.02;;
23113;SDS011;11726;50.122;8.832;2024-03-08T07:50:23;23.58;;;9.23;;
23113;SDS011;11726;50.122;8.832;2024-03-08T07:52:50;23.42;;;8.75;;
23113;SDS011;11726;50.122;8.832;2024-03-08T07:55:17;22.02;;;9.02;;
23113;SDS011;11726;50.122;8.832;2024-03-08T07:57:43;23.17;;;9.57;;
23113;SDS011;11726;50.122;8.832;2024-03-08T08:00:10;20.20;;;8.50;;
23113;SDS011;11726;50.122;8.832;2024-03-08T08:02:46;18.77;;;9.02;;
23113;SDS011;11726;50.122;8.832;2024-03-08T08:05:15;22.88;;;8.48;;
23113;SDS011;11726;50.122;8.832;2024-03-08T08:07:44;20.88;;;8.65;;
23113;SDS011;11726;50.122;8.832;2024-03-08T08:10:13;29.23;;;9.02;;
23113;SDS011;11726;50.122;8.832;2024-03-08T08:12:44;24.08;;;9.35;;
23113;SDS011;11726;50.122;8.832;2024-03-08T08:15:12;19.42;;;8.25;;
23113;SDS011;11726;50.122;8.832;2024-03-08T08:17:39;25.02;;;9.18;;
23113;SDS011;11726;50.122;8.832;2024-03-08T08:20:05;24.63;;;9.82;;
23113;SDS011;11726;50.122;8.832;2024-03-08T08:22:32;22.90;;;9.20;;
23113;SDS011;11726;50.122;8.832;2024-03-08T08:24:59;24.45;;;9.20;;
23113;SDS011;11726;50.122;8.832;2024-03-08T08:27:26;22.95;;;10.20;;
23113;SDS011;11726;50.122;8.832;2024-03-08T08:29:53;25.20;;;8.95;;
23113;SDS011;11726;50.122;8.832;2024-03-08T08:32:19;25.40;;;10.45;;
23113;SDS011;11726;50.122;8.832;2024-03-08T08:34:46;22.15;;;9.43;;
23113;SDS011;11726;50.122;8.832;2024-03-08T08:37:13;21.92;;;9.15;;
23113;SDS011;11726;50.122;8.832;2024-03-08T08:39:40;19.88;;;8.43;;
23113;SDS011;11726;50.122;8.832;2024-03-08T08:42:06;22.67;;;9.38;;
23113;SDS011;11726;50.122;8.832;2024-03-08T08:44:35;23.85;;;9.73;;
23113;SDS011;11726;50.122;8.832;2024-03-08T08:47:02;18.20;;;8.23;;
23113;SDS011;11726;50.122;8.832;2024-03-08T08:49:38;24.40;;;8.93;;
23113;SDS011;11726;50.122;8.832;2024-03-08T08:52:05;20.30;;;8.48;;
23113;SDS011;11726;50.122;8.832;2024-03-08T08:54:42;21.40;;;8.80;;
23113;SDS011;11726;50.122;8.832;2024-03-08T08:57:14;23.52;;;9.05;;
23113;SDS011;11726;50.122;8.832;2024-03-08T08:59:41;20.70;;;9.32;;
23113;SDS011;11726;50.122;8.832;2024-03-08T09:02:08;24.70;;;8.90;;
23113;SDS011;11726;50.122;8.832;2024-03-08T09:04:43;22.75;;;8.52;;
23113;SDS011;11726;50.122;8.832;2024-03-08T09:07:10;16.67;;;7.57;;
23113;SDS011;11726;50.122;8.832;2024-03-08T09:09:37;17.15;;;7.75;;
23113;SDS011;11726;50.122;8.832;2024-03-08T09:12:04;20.52;;;7.95;;
23113;SDS011;11726;50.122;8.832;2024-03-08T09:14:31;16.70;;;7.85;;
23113;SDS011;11726;50.122;8.832;2024-03-08T09:16:58;14.95;;;7.22;;
23113;SDS011;11726;50.122;8.832;2024-03-08T09:19:25;18.90;;;7.63;;
23113;SDS011;11726;50.122;8.832;2024-03-08T09:21:52;16.17;;;7.35;;
23113;SDS011;11726;50.122;8.832;2024-03-08T09:24:19;17.63;;;7.70;;
23113;SDS011;11726;50.122;8.832;2024-03-08T09:26:46;13.50;;;6.65;;
23113;SDS011;11726;50.122;8.832;2024-03-08T09:29:13;17.65;;;7.43;;
23113;SDS011;11726;50.122;8.832;2024-03-08T09:31:40;17.88;;;7.47;;
23113;SDS011;11726;50.122;8.832;2024-03-08T09:34:07;18.73;;;7.75;;
23113;SDS011;11726;50.122;8.832;2024-03-08T09:36:36;15.23;;;7.10;;
23113;SDS011;11726;50.122;8.832;2024-03-08T09:39:03;14.32;;;7.40;;
23113;SDS011;11726;50.122;8.832;2024-03-08T09:41:29;16.10;;;7.30;;
23113;SDS011;11726;50.122;8.832;2024-03-08T09:43:57;15.23;;;6.70;;
23113;SDS011;11726;50.122;8.832;2024-03-08T09:46:26;12.95;;;6.35;;
23113;SDS011;11726;50.122;8.832;2024-03-08T09:48:56;16.42;;;7.00;;
23113;SDS011;11726;50.122;8.832;2024-03-08T09:51:25;15.98;;;6.68;;
23113;SDS011;11726;50.122;8.832;2024-03-08T09:53:54;14.82;;;6.40;;
23113;SDS011;11726;50.122;8.832;2024-03-08T09:56:21;15.98;;;7.03;;
23113;SDS011;11726;50.122;8.832;2024-03-08T09:58:49;14.40;;;6.78;;
23113;SDS011;11726;50.122;8.832;2024-03-08T10:01:35;14.02;;;6.38;;
23113;SDS011;11726;50.122;8.832;2024-03-08T10:04:02;13.30;;;7.13;;
23113;SDS011;11726;50.122;8.832;2024-03-08T10:06:28;15.23;;;6.95;;
23113;SDS011;11726;50.122;8.832;2024-03-08T10:08:55;13.88;;;6.25;;
23113;SDS011;11726;50.122;8.832;2024-03-08T10:11:24;13.57;;;6.32;;
23113;SDS011;11726;50.122;8.832;2024-03-08T10:13:51;15.98;;;7.00;;
23113;SDS011;11726;50.122;8.832;2024-03-08T10:16:18;11.85;;;5.95;;
23113;SDS011;11726;50.122;8.832;2024-03-08T10:18:45;15.30;;;6.22;;
23113;SDS011;11726;50.122;8.832;2024-03-08T10:21:12;15.23;;;6.18;;
23113;SDS011;11726;50.122;8.832;2024-03-08T10:23:41;12.30;;;5.75;;
23113;SDS011;11726;50.122;8.832;2024-03-08T10:26:11;14.48;;;6.40;;
23113;SDS011;11726;50.122;8.832;2024-03-08T10:28:41;12.75;;;6.45;;
23113;SDS011;11726;50.122;8.832;2024-03-08T10:31:14;13.77;;;7.03;;
23113;SDS011;11726;50.122;8.832;2024-03-08T10:33:45;14.48;;;7.05;;
23113;SDS011;11726;50.122;8.832;2024-03-08T10:36:13;14.85;;;6.68;;
23113;SDS011;11726;50.122;8.832;2024-03-08T10:38:41;14.23;;;6.75;;
23113;SDS011;11726;50.122;8.832;2024-03-08T10:41:11;12.90;;;6.38;;
23113;SDS011;11726;50.122;8.832;2024-03-08T10:47:03;13.95;;;6.10;;
23113;SDS011;11726;50.122;8.832;2024-03-08T10:52:16;12.88;;;6.60;;
23113;SDS011;11726;50.122;8.832;2024-03-08T10:54:45;15.10;;;6.70;;
23113;SDS011;11726;50.122;8.832;2024-03-08T10:57:14;16.88;;;7.00;;
23113;SDS011;11726;50.122;8.832;2024-03-08T10:59:43;17.58;;;6.70;;
23113;SDS011;11726;50.122;8.832;2024-03-08T11:02:14;13.00;;;5.60;;
23113;SDS011;11726;50.122;8.832;2024-03-08T11:04:46;14.77;;;6.20;;
23113;SDS011;11726;50.122;8.832;2024-03-08T11:07:15;12.07;;;5.82;;
23113;SDS011;11726;50.122;8.832;2024-03-08T11:09:49;18.75;;;6.40;;
23113;SDS011;11726;50.122;8.832;2024-03-08T11:14:57;9.85;;;5.38;;
23113;SDS011;11726;50.122;8.832;2024-03-08T11:19:56;12.15;;;5.88;;
23113;SDS011;11726;50.122;8.832;2024-03-08T11:22:28;14.75;;;6.88;;
23113;SDS011;11726;50.122;8.832;2024-03-08T11:25:01;12.35;;;5.72;;
23113;SDS011;11726;50.122;8.832;2024-03-08T11:27:38;14.05;;;6.38;;
23113;SDS011;11726;50.122;8.832;2024-03-08T11:30:05;13.35;;;6.10;;
23113;SDS011;11726;50.122;8.832;2024-03-08T11:32:48;13.57;;;6.07;;
23113;SDS011;11726;50.122;8.832;2024-03-08T11:35:18;13.75;;;6.40;;
23113;SDS011;11726;50.122;8.832;2024-03-08T11:37:46;10.93;;;5.80;;
23113;SDS011;11726;50.122;8.832;2024-03-08T11:40:15;12.52;;;6.53;;
23113;SDS011;11726;50.122;8.832;2024-03-08T11:42:46;13.77;;;6.18;;
23113;SDS011;11726;50.122;8.832;2024-03-08T11:45:15;16.05;;;6.22;;
23113;SDS011;11726;50.122;8.832;2024-03-08T11:47:43;14.65;;;6.32;;
23113;SDS011;11726;50.122;8.832;2024-03-08T11:50:14;12.95;;;6.53;;
23113;SDS011;11726;50.122;8.832;2024-03-08T11:52:41;11.70;;;5.70;;
23113;SDS011;11726;50.122;8.832;2024-03-08T11:55:10;11.85;;;6.30;;
23113;SDS011;11726;50.122;8.832;2024-03-08T11:57:39;14.25;;;6.72;;
23113;SDS011;11726;50.122;8.832;2024-03-08T12:00:06;14.52;;;7.05;;
23113;SDS011;11726;50.122;8.832;2024-03-08T12:02:59;14.60;;;6.18;;
23113;SDS011;11726;50.122;8.832;2024-03-08T12:05:31;12.00;;;6.20;;
23113;SDS011;11726;50.122;8.832;2024-03-08T12:08:00;13.15;;;6.00;;
23113;SDS011;11726;50.122;8.832;2024-03-08T12:10:28;16.83;;;6.38;;
23113;SDS011;11726;50.122;8.832;2024-03-08T12:12:57;14.38;;;6.28;;
23113;SDS011;11726;50.122;8.832;2024-03-08T12:15:29;16.52;;;6.68;;
23113;SDS011;11726;50.122;8.832;2024-03-08T12:17:59;14.77;;;7.45;;
23113;SDS011;11726;50.122;8.832;2024-03-08T12:20:27;12.45;;;6.63;;
23113;SDS011;11726;50.122;8.832;2024-03-08T12:22:58;15.45;;;6.72;;
23113;SDS011;11726;50.122;8.832;2024-03-08T12:25:26;17.30;;;6.93;;
23113;SDS011;11726;50.122;8.832;2024-03-08T12:27:56;16.05;;;7.13;;
23113;SDS011;11726;50.122;8.832;2024-03-08T12:30:24;15.52;;;6.90;;
23113;SDS011;11726;50.122;8.832;2024-03-08T12:32:56;14.57;;;6.25;;
23113;SDS011;11726;50.122;8.832;2024-03-08T12:35:28;12.20;;;6.00;;
23113;SDS011;11726;50.122;8.832;2024-03-08T12:37:56;16.35;;;7.43;;
23113;SDS011;11726;50.122;8.832;2024-03-08T12:40:29;15.65;;;6.50;;
23113;SDS011;11726;50.122;8.832;2024-03-08T12:42:58;13.32;;;6.28;;
23113;SDS011;11726;50.122;8.832;2024-03-08T12:45:25;11.77;;;5.88;;
23113;SDS011;11726;50.122;8.832;2024-03-08T12:47:52;15.45;;;7.00;;
23113;SDS011;11726;50.122;8.832;2024-03-08T12:50:23;14.85;;;6.53;;
23113;SDS011;11726;50.122;8.832;2024-03-08T12:52:52;18.45;;;7.03;;
23113;SDS011;11726;50.122;8.832;2024-03-08T12:55:19;13.93;;;6.47;;
23113;SDS011;11726;50.122;8.832;2024-03-08T12:57:46;16.42;;;7.35;;
23113;SDS011;11726;50.122;8.832;2024-03-08T13:00:15;16.45;;;7.22;;
23113;SDS011;11726;50.122;8.832;2024-03-08T13:02:49;17.60;;;7.13;;
23113;SDS011;11726;50.122;8.832;2024-03-08T13:05:17;14.55;;;7.13;;
23113;SDS011;11726;50.122;8.832;2024-03-08T13:07:44;14.90;;;7.00;;
23113;SDS011;11726;50.122;8.832;2024-03-08T13:10:13;15.88;;;6.50;;
23113;SDS011;11726;50.122;8.832;2024-03-08T13:12:43;14.82;;;6.97;;
23113;SDS011;11726;50.122;8.832;2024-03-08T13:15:09;15.63;;;7.20;;
23113;SDS011;11726;50.122;8.832;2024-03-08T13:17:47;17.23;;;7.25;;
23113;SDS011;11726;50.122;8.832;2024-03-08T13:20:14;17.08;;;7.45;;
23113;SDS011;11726;50.122;8.832;2024-03-08T13:22:56;14.85;;;6.97;;
23113;SDS011;11726;50.122;8.832;2024-03-08T13:25:25;15.90;;;7.50;;
23113;SDS011;11726;50.122;8.832;2024-03-08T13:27:54;12.73;;;6.55;;
23113;SDS011;11726;50.122;8.832;2024-03-08T13:30:23;16.63;;;7.53;;
23113;SDS011;11726;50.122;8.832;2024-03-08T13:32:53;14.93;;;7.32;;
23113;SDS011;11726;50.122;8.832;2024-03-08T13:35:20;13.40;;;6.70;;
23113;SDS011;11726;50.122;8.832;2024-03-08T13:37:54;13.88;;;7.00;;
23113;SDS011;11726;50.122;8.832;2024-03-08T13:40:22;14.48;;;7.25;;
23113;SDS011;11726;50.122;8.832;2024-03-08T13:42:48;14.55;;;7.28;;
23113;SDS011;11726;50.122;8.832;2024-03-08T13:45:16;16.48;;;7.30;;
23113;SDS011;11726;50.122;8.832;2024-03-08T13:47:50;14.23;;;7.00;;
23113;SDS011;11726;50.122;8.832;2024-03-08T13:50:20;17.30;;;7.85;;
23113;SDS011;11726;50.122;8.832;2024-03-08T13:52:52;14.40;;;7.03;;
23113;SDS011;11726;50.122;8.832;2024-03-08T13:55:22;13.32;;;6.30;;
23113;SDS011;11726;50.122;8.832;2024-03-08T13:57:49;13.95;;;6.68;;
23113;SDS011;11726;50.122;8.832;2024-03-08T14:00:17;13.85;;;6.15;;
23113;SDS011;11726;50.122;8.832;2024-03-08T14:02:48;14.20;;;6.97;;
23113;SDS011;11726;50.122;8.832;2024-03-08T14:05:15;12.82;;;6.93;;
23113;SDS011;11726;50.122;8.832;2024-03-08T14:07:42;12.43;;;6.30;;
23113;SDS011;11726;50.122;8.832;2024-03-08T14:10:12;14.70;;;6.93;;
23113;SDS011;11726;50.122;8.832;2024-03-08T14:12:39;17.80;;;6.15;;
23113;SDS011;11726;50.122;8.832;2024-03-08T14:15:06;15.45;;;7.00;;
23113;SDS011;11726;50.122;8.832;2024-03-08T14:17:33;13.20;;;6.57;;
23113;SDS011;11726;50.122;8.832;2024-03-08T14:19:59;12.13;;;6.22;;
23113;SDS011;11726;50.122;8.832;2024-03-08T14:22:26;14.77;;;7.00;;
23113;SDS011;11726;50.122;8.832;2024-03-08T14:24:53;14.23;;;6.25;;
23113;SDS011;11726;50.122;8.832;2024-03-08T14:27:22;16.45;;;6.85;;
23113;SDS011;11726;50.122;8.832;2024-03-08T14:29:49;13.13;;;7.22;;
23113;SDS011;11726;50.122;8.832;2024-03-08T14:32:15;14.50;;;7.07;;
23113;SDS011;11726;50.122;8.832;2024-03-08T14:34:45;13.50;;;6.50;;
23113;SDS011;11726;50.122;8.832;2024-03-08T14:37:12;12.77;;;6.25;;
23113;SDS011;11726;50.122;8.832;2024-03-08T14:39:40;13.70;;;6.10;;
23113;SDS011;11726;50.122;8.832;2024-03-08T14:42:06;14.05;;;7.28;;
23113;SDS011;11726;50.122;8.832;2024-03-08T14:44:34;12.90;;;6.43;;
23113;SDS011;11726;50.122;8.832;2024-03-08T14:47:02;14.52;;;7.15;;
23113;SDS011;11726;50.122;8.832;2024-03-08T14:49:32;12.25;;;6.47;;
23113;SDS011;11726;50.122;8.832;2024-03-08T14:52:02;12.82;;;6.53;;
23113;SDS011;11726;50.122;8.832;2024-03-08T14:54:30;14.50;;;6.72;;